createdAt,value
2023-08-18T00:00:30.106Z,78.96
2023-08-18T00:01:32.297Z,78.83
2023-08-18T00:02:34.279Z,79.17
2023-08-18T00:03:36.200Z,79.59
2023-08-18T00:04:38.092Z,79.76
2023-08-18T00:05:39.922Z,79.47
2023-08-18T00:06:42.112Z,79.44
2023-08-18T00:07:44.049Z,79.10
2023-08-18T00:08:45.850Z,79.47
2023-08-18T00:09:47.741Z,79.38
2023-08-18T00:10:49.658Z,79.54
2023-08-18T00:11:51.929Z,79.95
2023-08-18T00:12:53.758Z,79.61
2023-08-18T00:13:55.598Z,78.73
2023-08-18T00:14:57.568Z,78.89
2023-08-18T00:15:59.471Z,78.86
2023-08-18T00:17:01.751Z,79.17
2023-08-18T00:18:03.973Z,78.92
2023-08-18T00:19:05.789Z,79.31
2023-08-18T00:20:09.658Z,80.12
2023-08-18T00:21:11.633Z,80.59
2023-08-18T00:22:14.200Z,80.27
2023-08-18T00:23:16.070Z,80.88
2023-08-18T00:24:17.989Z,80.32
2023-08-18T00:25:19.823Z,80.71
2023-08-18T00:26:21.722Z,80.62
2023-08-18T00:27:24.341Z,80.35
2023-08-18T00:28:26.899Z,81.13
2023-08-18T00:29:28.793Z,81.25
2023-08-18T00:30:30.712Z,81.39
2023-08-18T00:31:32.635Z,81.35
2023-08-18T00:32:35.687Z,81.36
2023-08-18T00:33:37.614Z,81.35
2023-08-18T00:34:39.528Z,81.78
2023-08-18T00:35:41.382Z,82.34
2023-08-18T00:36:43.200Z,82.85
2023-08-18T00:37:46.054Z,82.08
2023-08-18T00:38:48.293Z,81.70
2023-08-18T00:39:50.127Z,81.01
2023-08-18T00:40:51.966Z,80.81
2023-08-18T00:41:53.843Z,81.38
2023-08-18T00:42:55.970Z,82.08
2023-08-18T00:44:00.183Z,82.00
2023-08-18T00:45:02.166Z,82.31
2023-08-18T00:46:04.577Z,81.86
2023-08-18T00:47:06.968Z,81.81
2023-08-18T00:48:09.968Z,81.39
2023-08-18T00:49:12.099Z,81.90
2023-08-18T00:50:14.787Z,81.75
2023-08-18T00:51:17.536Z,81.92
2023-08-18T00:52:19.548Z,81.61
2023-08-18T00:53:23.232Z,81.54
2023-08-18T00:54:28.302Z,81.46
2023-08-18T00:55:30.826Z,81.47
2023-08-18T00:56:33.507Z,81.31
2023-08-18T00:57:37.166Z,81.08
2023-08-18T00:58:39.813Z,81.65
2023-08-18T00:59:43.008Z,81.52
2023-08-18T01:00:46.394Z,82.04
2023-08-18T01:01:50.435Z,82.64
2023-08-18T01:02:53.189Z,82.22
2023-08-18T01:03:56.850Z,81.81
2023-08-18T01:05:03.853Z,81.52
2023-08-18T01:06:05.962Z,82.34
2023-08-18T01:07:07.808Z,83.17
2023-08-18T01:08:09.802Z,82.58
2023-08-18T01:09:12.081Z,82.21
2023-08-18T01:10:14.958Z,82.53
2023-08-18T01:11:26.760Z,82.21
2023-08-18T01:12:28.578Z,81.84
2023-08-18T01:13:55.735Z,81.87
2023-08-18T01:15:41.211Z,79.24
2023-08-18T01:16:49.865Z,80.39
2023-08-18T01:17:54.174Z,81.19
2023-08-18T01:18:56.596Z,81.51
2023-08-18T01:20:00.653Z,81.68
2023-08-18T01:21:05.091Z,81.15
2023-08-18T01:22:13.132Z,81.19
2023-08-18T01:23:15.289Z,80.98
2023-08-18T01:24:17.155Z,80.56
2023-08-18T01:25:19.833Z,80.72
2023-08-18T01:26:21.703Z,80.43
2023-08-18T01:27:24.114Z,80.82
2023-08-18T01:28:26.010Z,81.22
2023-08-18T01:29:28.951Z,78.40
2023-08-18T01:30:46.933Z,79.71
2023-08-18T01:31:54.963Z,81.11
2023-08-18T01:33:02.857Z,81.79
2023-08-18T01:34:11.142Z,81.59
2023-08-18T01:35:13.703Z,81.55
2023-08-18T01:36:22.314Z,81.72
2023-08-18T01:37:24.936Z,81.64
2023-08-18T01:38:29.277Z,81.78
2023-08-18T01:39:32.921Z,81.50
2023-08-18T01:40:37.907Z,81.71
2023-08-18T01:41:41.535Z,82.20
2023-08-18T01:42:43.669Z,82.67
2023-08-18T01:43:45.797Z,81.75
2023-08-18T01:44:47.771Z,82.24
2023-08-18T01:45:50.048Z,81.79
2023-08-18T01:46:52.248Z,82.80
2023-08-18T01:47:54.234Z,83.51
2023-08-18T01:48:56.322Z,83.18
2023-08-18T01:49:58.313Z,83.12
2023-08-18T01:51:00.188Z,82.41
2023-08-18T01:52:02.367Z,82.21
2023-08-18T01:53:04.549Z,80.90
2023-08-18T01:54:06.510Z,82.21
2023-08-18T01:55:09.199Z,82.40
2023-08-18T01:56:12.099Z,81.63
2023-08-18T01:57:14.244Z,82.67
2023-08-18T01:58:16.154Z,82.40
2023-08-18T01:59:18.154Z,82.65
2023-08-18T02:00:21.020Z,81.42
2023-08-18T02:01:24.065Z,80.53
2023-08-18T02:02:25.934Z,79.03
2023-08-18T02:03:28.638Z,78.26
2023-08-18T02:04:30.667Z,77.94
2023-08-18T02:05:32.641Z,77.47
2023-08-18T02:06:35.500Z,77.52
2023-08-18T02:07:38.520Z,76.74
2023-08-18T02:08:40.445Z,76.02
2023-08-18T02:09:42.384Z,75.44
2023-08-18T02:10:44.903Z,75.25
2023-08-18T02:11:47.009Z,74.56
2023-08-18T02:12:48.892Z,74.28
2023-08-18T02:13:50.773Z,73.21
2023-08-18T02:14:52.911Z,73.77
2023-08-18T02:15:54.979Z,73.34
2023-08-18T02:16:58.173Z,72.93
2023-08-18T02:18:00.035Z,73.34
2023-08-18T02:19:01.906Z,74.06
2023-08-18T02:20:05.281Z,74.61
2023-08-18T02:21:07.267Z,74.37
2023-08-18T02:22:09.457Z,73.71
2023-08-18T02:23:11.409Z,74.29
2023-08-18T02:24:13.366Z,74.72
2023-08-18T02:25:15.383Z,74.35
2023-08-18T02:26:17.399Z,74.12
2023-08-18T02:27:19.680Z,73.55
2023-08-18T02:28:21.531Z,74.08
2023-08-18T02:29:23.542Z,73.47
2023-08-18T02:30:25.466Z,74.53
2023-08-18T02:31:27.395Z,75.01
2023-08-18T02:32:29.622Z,74.55
2023-08-18T02:33:32.276Z,73.65
2023-08-18T02:34:34.147Z,73.47
2023-08-18T02:35:35.994Z,73.45
2023-08-18T02:36:37.880Z,73.54
2023-08-18T02:37:40.041Z,73.45
2023-08-18T02:38:41.887Z,73.73
2023-08-18T02:39:43.753Z,73.26
2023-08-18T02:40:45.676Z,72.71
2023-08-18T02:41:48.588Z,73.25
2023-08-18T02:42:50.731Z,73.37
2023-08-18T02:43:52.644Z,73.36
2023-08-18T02:44:54.469Z,73.67
2023-08-18T02:46:01.297Z,73.76
2023-08-18T02:47:03.264Z,74.04
2023-08-18T02:48:05.753Z,74.29
2023-08-18T02:49:07.610Z,74.70
2023-08-18T02:50:10.931Z,74.42
2023-08-18T02:51:12.821Z,74.25
2023-08-18T02:52:14.781Z,74.18
2023-08-18T02:53:17.150Z,74.39
2023-08-18T02:54:19.079Z,74.54
2023-08-18T02:55:20.981Z,74.01
2023-08-18T02:56:22.872Z,73.86
2023-08-18T02:57:24.800Z,74.11
2023-08-18T02:58:28.819Z,74.51
2023-08-18T02:59:30.761Z,74.59
2023-08-18T03:00:35.168Z,75.03
2023-08-18T03:01:37.053Z,75.57
2023-08-18T03:02:39.042Z,75.47
2023-08-18T03:03:41.260Z,75.34
2023-08-18T03:04:43.707Z,75.23
2023-08-18T03:05:47.007Z,75.54
2023-08-18T03:06:48.912Z,75.39
2023-08-18T03:07:50.769Z,75.53
2023-08-18T03:08:53.006Z,75.48
2023-08-18T03:09:54.843Z,76.01
2023-08-18T03:11:01.824Z,75.72
2023-08-18T03:12:03.846Z,75.36
2023-08-18T03:13:05.913Z,75.67
2023-08-18T03:14:09.139Z,76.15
2023-08-18T03:15:11.140Z,76.01
2023-08-18T03:16:13.034Z,76.19
2023-08-18T03:17:15.005Z,76.61
2023-08-18T03:18:17.000Z,76.54
2023-08-18T03:19:19.426Z,76.13
2023-08-18T03:20:21.337Z,76.25
2023-08-18T03:21:23.239Z,75.91
2023-08-18T03:22:25.242Z,75.39
2023-08-18T03:23:27.822Z,75.70
2023-08-18T03:24:29.935Z,76.18
2023-08-18T03:25:31.876Z,75.92
2023-08-18T03:26:33.799Z,76.26
2023-08-18T03:27:35.693Z,76.34
2023-08-18T03:28:38.535Z,76.01
2023-08-18T03:29:41.308Z,76.47
2023-08-18T03:30:43.201Z,76.04
2023-08-18T03:31:45.133Z,76.22
2023-08-18T03:32:48.868Z,75.84
2023-08-18T03:33:50.813Z,75.65
2023-08-18T03:34:55.442Z,75.80
2023-08-18T03:35:58.193Z,75.28
2023-08-18T03:37:00.107Z,75.19
2023-08-18T03:38:04.069Z,75.46
2023-08-18T03:39:06.566Z,75.58
2023-08-18T03:40:09.263Z,75.58
2023-08-18T03:41:11.670Z,76.19
2023-08-18T03:42:13.970Z,76.96
2023-08-18T03:43:15.935Z,77.20
2023-08-18T03:44:17.779Z,77.07
2023-08-18T03:45:19.991Z,77.06
2023-08-18T03:46:24.321Z,76.97
2023-08-18T03:47:26.959Z,76.82
2023-08-18T03:48:29.433Z,77.30
2023-08-18T03:49:33.229Z,77.47
2023-08-18T03:50:38.658Z,77.47
2023-08-18T03:51:40.581Z,77.46
2023-08-18T03:52:42.748Z,77.86
2023-08-18T03:53:45.427Z,77.64
2023-08-18T03:54:47.781Z,77.75
2023-08-18T03:55:57.125Z,77.96
2023-08-18T03:56:58.974Z,77.95
2023-08-18T03:58:00.935Z,77.93
2023-08-18T03:59:02.967Z,78.48
2023-08-18T04:00:05.083Z,78.19
2023-08-18T04:01:15.701Z,78.33
2023-08-18T04:02:18.083Z,77.47
2023-08-18T04:03:19.985Z,76.77
2023-08-18T04:04:22.044Z,76.83
2023-08-18T04:05:23.947Z,77.72
2023-08-18T04:06:25.900Z,77.60
2023-08-18T04:07:28.205Z,77.95
2023-08-18T04:08:33.912Z,78.23
2023-08-18T04:09:35.777Z,78.25
2023-08-18T04:10:37.621Z,78.77
2023-08-18T04:11:39.468Z,78.56
2023-08-18T04:12:41.605Z,78.71
2023-08-18T04:13:44.790Z,78.70
2023-08-18T04:14:46.734Z,78.64
2023-08-18T04:15:48.672Z,78.23
2023-08-18T04:16:51.432Z,78.40
2023-08-18T04:17:53.816Z,78.34
2023-08-18T04:18:55.784Z,79.39
2023-08-18T04:19:58.183Z,78.90
2023-08-18T04:21:00.591Z,79.17
2023-08-18T04:22:04.535Z,77.60
2023-08-18T04:23:07.020Z,78.23
2023-08-18T04:24:09.037Z,78.86
2023-08-18T04:25:12.053Z,79.61
2023-08-18T04:26:14.321Z,80.22
2023-08-18T04:27:16.781Z,81.17
2023-08-18T04:28:19.006Z,80.79
2023-08-18T04:29:20.893Z,80.55
2023-08-18T04:30:23.382Z,80.46
2023-08-18T04:31:25.363Z,80.07
2023-08-18T04:32:27.786Z,79.11
2023-08-18T04:33:30.173Z,79.72
2023-08-18T04:34:33.345Z,80.16
2023-08-18T04:35:35.642Z,81.18
2023-08-18T04:36:38.656Z,81.01
2023-08-18T04:37:41.366Z,80.82
2023-08-18T04:38:45.904Z,80.58
2023-08-18T04:39:48.324Z,80.45
2023-08-18T04:41:03.630Z,80.85
2023-08-18T04:42:05.712Z,80.24
2023-08-18T04:43:08.912Z,80.50
2023-08-18T04:44:11.141Z,80.58
2023-08-18T04:45:13.841Z,80.33
2023-08-18T04:46:15.756Z,80.24
2023-08-18T04:47:19.208Z,80.83
2023-08-18T04:48:22.336Z,80.93
2023-08-18T04:49:24.469Z,81.01
2023-08-18T04:50:26.600Z,80.16
2023-08-18T04:51:29.372Z,80.55
2023-08-18T04:52:32.378Z,80.92
2023-08-18T04:53:34.932Z,80.71
2023-08-18T04:54:38.274Z,79.08
2023-08-18T04:55:40.339Z,78.85
2023-08-18T04:56:42.991Z,78.40
2023-08-18T04:57:44.883Z,77.83
2023-08-18T04:58:47.144Z,78.45
2023-08-18T04:59:49.676Z,78.85
2023-08-18T05:00:51.651Z,79.35
2023-08-18T05:01:54.004Z,79.77
2023-08-18T05:02:56.506Z,80.07
2023-08-18T05:03:58.607Z,80.35
2023-08-18T05:05:00.863Z,79.34
2023-08-18T05:06:08.852Z,79.44
2023-08-18T05:07:10.773Z,79.71
2023-08-18T05:08:12.634Z,79.18
2023-08-18T05:09:14.621Z,79.80
2023-08-18T05:10:16.793Z,79.38
2023-08-18T05:11:18.710Z,78.74
2023-08-18T05:12:21.629Z,79.18
2023-08-18T05:13:23.518Z,79.75
2023-08-18T05:14:25.350Z,79.86
2023-08-18T05:15:27.516Z,80.24
2023-08-18T05:16:29.431Z,80.02
2023-08-18T05:17:31.374Z,79.89
2023-08-18T05:18:34.715Z,79.91
2023-08-18T05:19:36.636Z,79.89
2023-08-18T05:20:38.781Z,80.73
2023-08-18T05:21:41.058Z,81.12
2023-08-18T05:22:42.898Z,79.39
2023-08-18T05:23:45.021Z,78.99
2023-08-18T05:24:46.993Z,78.62
2023-08-18T05:25:49.503Z,78.24
2023-08-18T05:26:51.405Z,78.27
2023-08-18T05:27:53.223Z,77.84
2023-08-18T05:28:55.024Z,77.57
2023-08-18T05:29:58.677Z,76.64
2023-08-18T05:31:01.038Z,77.19
2023-08-18T05:32:02.953Z,78.11
2023-08-18T05:33:05.102Z,78.22
2023-08-18T05:34:06.979Z,78.52
2023-08-18T05:35:11.247Z,78.31
2023-08-18T05:36:13.468Z,78.83
2023-08-18T05:37:15.309Z,78.81
2023-08-18T05:38:17.468Z,77.95
2023-08-18T05:39:19.345Z,77.36
2023-08-18T05:40:21.295Z,77.12
2023-08-18T05:41:23.542Z,77.31
2023-08-18T05:42:25.499Z,76.83
2023-08-18T05:43:27.329Z,76.68
2023-08-18T05:44:29.160Z,76.29
2023-08-18T05:45:31.006Z,76.36
2023-08-18T05:46:33.364Z,76.10
2023-08-18T05:47:35.318Z,76.15
2023-08-18T05:48:37.369Z,75.60
2023-08-18T05:49:39.251Z,76.10
2023-08-18T05:50:41.914Z,76.51
2023-08-18T05:51:45.455Z,76.25
2023-08-18T05:52:47.327Z,77.39
2023-08-18T05:53:49.203Z,76.78
2023-08-18T05:54:51.081Z,76.86
2023-08-18T05:55:53.748Z,75.95
2023-08-18T05:56:55.924Z,75.55
2023-08-18T05:58:03.854Z,73.62
2023-08-18T05:59:05.740Z,73.76
2023-08-18T06:00:08.445Z,73.46
2023-08-18T06:01:16.167Z,74.02
2023-08-18T06:02:18.379Z,74.30
2023-08-18T06:03:20.672Z,73.50
2023-08-18T06:04:22.495Z,73.09
2023-08-18T06:05:27.694Z,72.67
2023-08-18T06:06:29.660Z,72.33
2023-08-18T06:07:31.863Z,71.00
2023-08-18T06:08:33.976Z,69.83
2023-08-18T06:09:35.853Z,68.12
2023-08-18T06:10:37.723Z,67.51
2023-08-18T06:11:39.642Z,67.93
2023-08-18T06:12:41.842Z,67.97
2023-08-18T06:13:43.690Z,67.54
2023-08-18T06:14:45.540Z,67.09
2023-08-18T06:15:47.814Z,66.48
2023-08-18T06:16:49.655Z,65.83
2023-08-18T06:17:51.892Z,65.91
2023-08-18T06:18:53.810Z,65.44
2023-08-18T06:19:55.682Z,65.67
2023-08-18T06:20:57.686Z,65.05
2023-08-18T06:21:59.513Z,65.22
2023-08-18T06:23:01.832Z,65.55
2023-08-18T06:24:03.998Z,65.88
2023-08-18T06:25:08.225Z,65.61
2023-08-18T06:26:10.086Z,64.96
2023-08-18T06:27:11.961Z,64.03
2023-08-18T06:28:14.250Z,63.80
2023-08-18T06:29:16.091Z,63.90
2023-08-18T06:30:18.001Z,63.77
2023-08-18T06:31:19.890Z,63.71
2023-08-18T06:32:22.018Z,63.59
2023-08-18T06:33:24.166Z,64.47
2023-08-18T06:34:26.016Z,63.78
2023-08-18T06:35:27.915Z,64.33
2023-08-18T06:36:29.753Z,64.29
2023-08-18T06:37:31.631Z,64.57
2023-08-18T06:38:33.821Z,64.87
2023-08-18T06:39:35.680Z,64.22
2023-08-18T06:40:37.526Z,64.29
2023-08-18T06:41:40.926Z,63.96
2023-08-18T06:42:45.901Z,63.70
2023-08-18T06:43:48.050Z,64.21
2023-08-18T06:44:49.962Z,63.55
2023-08-18T06:45:51.954Z,63.14
2023-08-18T06:46:53.872Z,62.14
2023-08-18T06:47:55.741Z,62.36
2023-08-18T06:48:57.902Z,61.97
2023-08-18T06:50:01.076Z,62.33
2023-08-18T06:51:02.973Z,62.81
2023-08-18T06:52:05.072Z,61.69
2023-08-18T06:53:06.945Z,62.09
2023-08-18T06:54:09.174Z,62.45
2023-08-18T06:55:15.235Z,62.09
2023-08-18T06:56:21.145Z,61.90
2023-08-18T06:57:23.644Z,62.18
2023-08-18T06:58:25.589Z,62.66
2023-08-18T06:59:27.970Z,62.72
2023-08-18T07:00:29.779Z,61.93
2023-08-18T07:01:31.721Z,61.41
2023-08-18T07:02:33.888Z,61.59
2023-08-18T07:03:36.148Z,62.14
2023-08-18T07:04:38.389Z,61.91
2023-08-18T07:05:40.483Z,62.47
2023-08-18T07:06:45.364Z,62.11
2023-08-18T07:07:47.734Z,62.28
2023-08-18T07:08:49.721Z,62.42
2023-08-18T07:09:51.910Z,63.00
2023-08-18T07:10:53.812Z,63.24
2023-08-18T07:11:55.720Z,63.47
2023-08-18T07:12:57.869Z,63.65
2023-08-18T07:13:59.769Z,63.39
2023-08-18T07:15:02.093Z,63.51
2023-08-18T07:16:04.105Z,64.34
2023-08-18T07:17:05.938Z,65.40
2023-08-18T07:18:09.559Z,65.72
2023-08-18T07:19:11.558Z,65.86
2023-08-18T07:20:13.896Z,65.70
2023-08-18T07:21:15.798Z,65.93
2023-08-18T07:22:17.674Z,65.64
2023-08-18T07:23:20.084Z,65.37
2023-08-18T07:24:22.027Z,65.45
2023-08-18T07:25:24.363Z,64.89
2023-08-18T07:26:26.944Z,64.69
2023-08-18T07:27:28.780Z,65.47
2023-08-18T07:28:30.789Z,66.25
2023-08-18T07:29:35.206Z,67.02
2023-08-18T07:30:37.708Z,67.02
2023-08-18T07:31:39.754Z,67.13
2023-08-18T07:32:41.669Z,67.45
2023-08-18T07:33:43.774Z,67.66
2023-08-18T07:34:46.487Z,67.92
2023-08-18T07:35:48.645Z,67.90
2023-08-18T07:36:50.494Z,68.51
2023-08-18T07:37:56.091Z,68.75
2023-08-18T07:38:58.329Z,68.28
2023-08-18T07:40:00.219Z,67.58
2023-08-18T07:41:03.306Z,68.34
2023-08-18T07:42:05.244Z,68.28
2023-08-18T07:43:08.239Z,67.47
2023-08-18T07:44:10.175Z,68.45
2023-08-18T07:45:12.337Z,68.25
2023-08-18T07:46:14.725Z,68.45
2023-08-18T07:47:16.686Z,69.21
2023-08-18T07:48:18.849Z,68.59
2023-08-18T07:49:20.771Z,68.38
2023-08-18T07:50:22.644Z,68.51
2023-08-18T07:51:25.009Z,68.99
2023-08-18T07:52:26.919Z,68.70
2023-08-18T07:53:28.832Z,69.15
2023-08-18T07:54:30.654Z,69.26
2023-08-18T07:55:32.524Z,69.29
2023-08-18T07:56:34.681Z,69.28
2023-08-18T07:57:38.553Z,69.90
2023-08-18T07:58:40.563Z,69.91
2023-08-18T07:59:43.117Z,69.95
2023-08-18T08:00:45.048Z,69.24
2023-08-18T08:01:47.294Z,69.35
2023-08-18T08:02:49.823Z,68.80
2023-08-18T08:03:51.827Z,69.07
2023-08-18T08:04:53.726Z,69.47
2023-08-18T08:05:55.714Z,69.15
2023-08-18T08:06:58.577Z,70.18
2023-08-18T08:08:00.653Z,69.52
2023-08-18T08:09:02.666Z,69.81
2023-08-18T08:10:05.764Z,69.58
2023-08-18T08:11:07.754Z,68.97
2023-08-18T08:12:09.936Z,68.73
2023-08-18T08:13:12.008Z,68.75
2023-08-18T08:14:13.875Z,68.58
2023-08-18T08:15:16.090Z,69.58
2023-08-18T08:16:18.042Z,69.85
2023-08-18T08:17:20.208Z,69.92
2023-08-18T08:18:22.072Z,70.53
2023-08-18T08:19:23.942Z,70.44
2023-08-18T08:20:30.271Z,70.74
2023-08-18T08:21:36.735Z,70.05
2023-08-18T08:22:43.315Z,70.82
2023-08-18T08:23:48.609Z,71.20
2023-08-18T08:24:53.203Z,71.18
2023-08-18T08:25:55.657Z,71.28
2023-08-18T08:26:57.927Z,72.00
2023-08-18T08:28:00.264Z,72.52
2023-08-18T08:29:02.317Z,72.06
2023-08-18T08:30:05.722Z,71.79
2023-08-18T08:31:07.625Z,71.27
2023-08-18T08:32:10.625Z,71.27
2023-08-18T08:33:16.965Z,71.73
2023-08-18T08:34:23.169Z,71.45
2023-08-18T08:35:28.716Z,71.76
2023-08-18T08:36:33.943Z,72.25
2023-08-18T08:37:38.961Z,72.34
2023-08-18T08:38:43.754Z,72.13
2023-08-18T08:39:47.452Z,72.83
2023-08-18T08:40:53.336Z,70.32
2023-08-18T08:41:58.590Z,69.86
2023-08-18T08:44:07.833Z,70.10
2023-08-18T08:45:12.954Z,69.85
2023-08-18T08:46:16.306Z,69.87
2023-08-18T08:47:19.772Z,69.38
2023-08-18T08:48:25.103Z,68.97
2023-08-18T08:49:30.292Z,69.54
2023-08-18T08:50:37.709Z,69.30
2023-08-18T08:51:42.792Z,68.44
2023-08-18T08:52:49.667Z,68.37
2023-08-18T08:53:56.050Z,68.21
2023-08-18T08:55:06.786Z,68.44
2023-08-18T08:56:10.072Z,67.71
2023-08-18T08:57:12.875Z,68.04
2023-08-18T08:58:15.161Z,67.70
2023-08-18T08:59:18.431Z,67.24
2023-08-18T09:00:21.664Z,67.00
2023-08-18T09:01:27.229Z,67.12
2023-08-18T09:02:29.378Z,67.13
2023-08-18T09:03:31.694Z,66.89
2023-08-18T09:04:33.725Z,66.38
2023-08-18T09:05:35.976Z,66.79
2023-08-18T09:06:43.354Z,67.14
2023-08-18T09:07:45.910Z,66.88
2023-08-18T09:08:47.775Z,66.15
2023-08-18T09:09:49.652Z,66.87
2023-08-18T09:10:52.048Z,66.78
2023-08-18T09:12:00.592Z,66.42
2023-08-18T09:13:02.488Z,65.78
2023-08-18T09:14:04.755Z,65.88
2023-08-18T09:16:14.916Z,66.02
2023-08-18T09:17:17.144Z,66.04
2023-08-18T09:18:20.508Z,66.43
2023-08-18T09:19:27.198Z,67.00
2023-08-18T09:20:30.343Z,67.02
2023-08-18T09:21:34.140Z,66.75
2023-08-18T09:22:36.065Z,67.48
2023-08-18T09:23:39.036Z,67.18
2023-08-18T09:24:40.860Z,67.95
2023-08-18T09:25:42.774Z,67.75
2023-08-18T09:26:46.002Z,68.41
2023-08-18T09:27:47.946Z,68.21
2023-08-18T09:28:49.814Z,67.76
2023-08-18T09:29:53.496Z,68.07
2023-08-18T09:30:55.481Z,68.73
2023-08-18T09:31:58.362Z,68.24
2023-08-18T09:33:05.046Z,67.79
2023-08-18T09:34:07.443Z,68.47
2023-08-18T09:35:13.334Z,68.57
2023-08-18T09:36:15.634Z,69.25
2023-08-18T09:37:24.515Z,68.29
2023-08-18T09:38:30.112Z,67.60
2023-08-18T09:39:39.253Z,67.09
2023-08-18T09:40:41.434Z,66.63
2023-08-18T09:41:57.698Z,67.37
2023-08-18T09:43:05.207Z,67.22
2023-08-18T09:44:07.646Z,68.88
2023-08-18T09:45:12.954Z,68.93
2023-08-18T09:46:17.386Z,68.15
2023-08-18T09:47:20.464Z,67.98
2023-08-18T09:48:27.234Z,66.92
2023-08-18T09:49:34.271Z,67.18
2023-08-18T09:50:37.149Z,67.77
2023-08-18T09:51:39.500Z,67.55
2023-08-18T09:52:43.584Z,67.83
2023-08-18T09:53:54.316Z,68.54
2023-08-18T09:55:27.379Z,67.42
2023-08-18T09:56:35.865Z,67.47
2023-08-18T09:57:55.958Z,67.59
2023-08-18T09:59:33.023Z,66.46
2023-08-18T10:00:37.345Z,66.85
2023-08-18T10:01:39.918Z,65.95
2023-08-18T10:02:44.922Z,66.66
2023-08-18T10:03:48.134Z,67.45
2023-08-18T10:04:51.511Z,67.83
2023-08-18T10:05:54.336Z,67.40
2023-08-18T10:06:57.015Z,67.72
2023-08-18T10:08:00.262Z,67.65
2023-08-18T10:09:02.656Z,66.99
2023-08-18T10:10:06.456Z,66.62
2023-08-18T10:11:09.903Z,66.78
2023-08-18T10:12:12.459Z,65.98
2023-08-18T10:13:14.965Z,66.40
2023-08-18T10:14:18.744Z,66.87
2023-08-18T10:15:22.011Z,67.06
2023-08-18T10:16:24.121Z,66.70
2023-08-18T10:17:26.433Z,66.82
2023-08-18T10:18:28.413Z,64.74
2023-08-18T10:20:02.203Z,63.32
2023-08-18T10:21:04.689Z,61.66
2023-08-18T10:22:08.058Z,61.45
2023-08-18T10:23:10.857Z,61.52
2023-08-18T10:24:12.742Z,61.21
2023-08-18T10:25:29.351Z,61.07
2023-08-18T10:26:35.302Z,61.10
2023-08-18T10:27:39.832Z,60.92
2023-08-18T10:28:41.942Z,60.69
2023-08-18T10:29:44.550Z,61.22
2023-08-18T10:31:11.790Z,61.58
2023-08-18T10:32:15.163Z,60.79
2023-08-18T10:33:28.742Z,61.82
2023-08-18T10:34:31.034Z,61.80
2023-08-18T10:35:33.028Z,62.54
2023-08-18T10:36:36.438Z,61.66
2023-08-18T10:37:38.278Z,61.43
2023-08-18T10:38:40.625Z,62.48
2023-08-18T10:39:43.090Z,63.58
2023-08-18T10:40:44.976Z,63.76
2023-08-18T10:42:08.848Z,62.56
2023-08-18T10:43:14.689Z,61.96
2023-08-18T10:44:16.572Z,60.93
2023-08-18T10:45:29.608Z,61.21
2023-08-18T10:46:38.475Z,61.18
2023-08-18T10:47:42.138Z,61.34
2023-08-18T10:48:44.618Z,61.56
2023-08-18T10:49:46.458Z,60.77
2023-08-18T10:50:48.627Z,61.61
2023-08-18T10:51:50.813Z,61.92
2023-08-18T10:52:53.397Z,61.48
2023-08-18T10:53:57.281Z,59.67
2023-08-18T10:55:00.638Z,60.18
2023-08-18T10:56:07.015Z,59.63
2023-08-18T10:57:08.884Z,59.12
2023-08-18T10:58:10.983Z,58.16
2023-08-18T10:59:12.902Z,57.95
2023-08-18T11:00:16.616Z,57.15
2023-08-18T11:01:21.831Z,56.98
2023-08-18T11:02:23.786Z,58.19
2023-08-18T11:03:26.952Z,57.24
2023-08-18T11:04:29.772Z,56.76
2023-08-18T11:05:32.718Z,55.24
2023-08-18T11:06:34.849Z,55.51
2023-08-18T11:07:37.096Z,55.53
2023-08-18T11:08:40.112Z,54.62
2023-08-18T11:09:42.032Z,51.67
2023-08-18T11:10:44.250Z,51.60
2023-08-18T11:11:46.446Z,52.79
2023-08-18T11:12:49.784Z,52.38
2023-08-18T11:13:52.020Z,51.21
2023-08-18T11:14:53.925Z,51.03
2023-08-18T11:15:57.590Z,50.29
2023-08-18T11:17:00.469Z,51.30
2023-08-18T11:18:02.446Z,51.36
2023-08-18T11:19:05.727Z,51.56
2023-08-18T11:20:08.903Z,51.65
2023-08-18T11:21:10.774Z,51.41
2023-08-18T11:22:12.940Z,51.66
2023-08-18T11:23:14.815Z,51.08
2023-08-18T11:24:19.569Z,51.66
2023-08-18T11:25:25.180Z,51.48
2023-08-18T11:26:27.156Z,52.00
2023-08-18T11:27:29.314Z,51.05
2023-08-18T11:28:31.447Z,51.52
2023-08-18T11:29:33.294Z,52.30
2023-08-18T11:30:35.995Z,52.53
2023-08-18T11:31:37.917Z,52.85
2023-08-18T11:32:40.926Z,53.66
2023-08-18T11:33:43.095Z,52.88
2023-08-18T11:34:45.335Z,52.67
2023-08-18T11:35:47.167Z,52.04
2023-08-18T11:36:48.998Z,51.69
2023-08-18T11:37:52.548Z,52.51
2023-08-18T11:39:00.370Z,52.68
2023-08-18T11:40:02.214Z,53.51
2023-08-18T11:41:04.341Z,53.67
2023-08-18T11:42:06.561Z,53.28
2023-08-18T11:43:12.569Z,52.56
2023-08-18T11:44:14.458Z,53.95
2023-08-18T11:45:18.275Z,53.64
2023-08-18T11:46:21.170Z,53.79
2023-08-18T11:47:23.025Z,54.51
2023-08-18T11:48:29.147Z,54.05
2023-08-18T11:49:31.120Z,53.06
2023-08-18T11:50:33.746Z,52.62
2023-08-18T11:51:35.707Z,52.10
2023-08-18T11:52:46.105Z,51.39
2023-08-18T11:53:48.225Z,52.18
2023-08-18T11:54:50.090Z,52.19
2023-08-18T11:55:52.741Z,51.60
2023-08-18T11:56:54.895Z,51.84
2023-08-18T11:57:56.780Z,53.18
2023-08-18T11:58:59.009Z,53.48
2023-08-18T12:00:00.917Z,54.41
2023-08-18T12:01:05.024Z,53.88
2023-08-18T12:02:08.019Z,54.19
2023-08-18T12:03:26.812Z,54.16
2023-08-18T12:04:31.339Z,54.52
2023-08-18T12:05:37.645Z,54.87
2023-08-18T12:06:40.280Z,55.22
2023-08-18T12:07:42.478Z,56.44
2023-08-18T12:08:44.351Z,56.52
2023-08-18T12:09:46.521Z,56.78
2023-08-18T12:10:51.464Z,57.24
2023-08-18T12:11:53.884Z,56.95
2023-08-18T12:12:57.943Z,58.00
2023-08-18T12:13:59.748Z,59.45
2023-08-18T12:15:01.757Z,59.38
2023-08-18T12:16:03.998Z,58.93
2023-08-18T12:17:06.054Z,57.80
2023-08-18T12:18:08.214Z,58.01
2023-08-18T12:19:10.272Z,57.53
2023-08-18T12:20:12.244Z,57.13
2023-08-18T12:21:14.108Z,56.76
2023-08-18T12:22:15.945Z,58.02
2023-08-18T12:23:18.165Z,58.94
2023-08-18T12:24:20.033Z,59.25
2023-08-18T12:25:23.891Z,59.00
2023-08-18T12:26:27.723Z,58.44
2023-08-18T12:27:30.504Z,57.56
2023-08-18T12:28:34.584Z,57.63
2023-08-18T12:29:36.497Z,57.67
2023-08-18T12:30:38.439Z,58.16
2023-08-18T12:31:40.332Z,57.99
2023-08-18T12:32:44.546Z,58.10
2023-08-18T12:33:46.831Z,58.32
2023-08-18T12:34:51.354Z,58.55
2023-08-18T12:35:53.317Z,57.81
2023-08-18T12:36:57.573Z,57.66
2023-08-18T12:37:59.568Z,58.73
2023-08-18T12:39:01.775Z,58.09
2023-08-18T12:40:06.824Z,58.60
2023-08-18T12:41:09.911Z,58.80
2023-08-18T12:42:11.799Z,58.98
2023-08-18T12:43:13.694Z,58.68
2023-08-18T12:44:15.862Z,58.60
2023-08-18T12:45:17.717Z,59.10
2023-08-18T12:46:19.664Z,60.15
2023-08-18T12:47:21.524Z,59.55
2023-08-18T12:48:23.524Z,59.76
2023-08-18T12:49:26.772Z,60.29
2023-08-18T12:50:28.678Z,59.59
2023-08-18T12:51:30.516Z,59.73
2023-08-18T12:52:32.692Z,59.54
2023-08-18T12:53:35.013Z,59.41
2023-08-18T12:54:37.251Z,60.06
2023-08-18T12:55:39.099Z,60.75
2023-08-18T12:56:40.941Z,60.60
2023-08-18T12:57:43.129Z,60.43
2023-08-18T12:58:45.006Z,61.08
2023-08-18T12:59:47.164Z,62.27
2023-08-18T13:00:49.107Z,61.32
2023-08-18T13:01:52.441Z,61.18
2023-08-18T13:02:54.271Z,61.88
2023-08-18T13:03:56.410Z,61.38
2023-08-18T13:04:58.580Z,61.73
2023-08-18T13:06:00.449Z,61.70
2023-08-18T13:07:03.218Z,62.43
2023-08-18T13:08:05.413Z,62.93
2023-08-18T13:09:07.312Z,61.29
2023-08-18T13:10:09.821Z,61.55
2023-08-18T13:11:14.416Z,59.80
2023-08-18T13:12:19.259Z,58.57
2023-08-18T13:13:21.633Z,57.87
2023-08-18T13:14:26.666Z,58.42
2023-08-18T13:15:30.675Z,59.11
2023-08-18T13:16:34.746Z,59.48
2023-08-18T13:17:39.789Z,59.74
2023-08-18T13:18:42.531Z,59.86
2023-08-18T13:19:48.923Z,60.29
2023-08-18T13:20:54.330Z,59.99
2023-08-18T13:21:58.981Z,60.56
2023-08-18T13:23:03.003Z,61.16
2023-08-18T13:24:06.297Z,60.70
2023-08-18T13:25:10.834Z,61.21
2023-08-18T13:26:13.719Z,61.59
2023-08-18T13:27:15.641Z,61.57
2023-08-18T13:28:18.121Z,61.29
2023-08-18T13:29:21.800Z,61.12
2023-08-18T13:30:25.655Z,62.46
2023-08-18T13:31:27.887Z,62.04
2023-08-18T13:32:30.095Z,61.81
2023-08-18T13:33:32.094Z,60.56
2023-08-18T13:34:34.007Z,60.41
2023-08-18T13:35:35.915Z,60.45
2023-08-18T13:36:40.721Z,60.35